Last 24 Hours

OV-Siberia 8700'

Hourly Data | America/Los_Angeles
as of 5/8/26 7:19 AM PDT
Date & Time Temp (°F) RH (%) Dew Pt (°F) Wet Bulb (°F) Wind Dir (°) Wind Spd (mph) Wind Gust (mph) WindChill (°F) Daily Min Temp (°F) Daily Max Temp (°F)
5/8/26 - 0700 43.0 33 16.1 32.4 W | 264 8.2 14.3 37.7 41.6 46.8
5/8/26 - 0600 41.6 36 16.9 31.8 W | 268 10.1 20.3 36.3 41.6 46.8
5/8/26 - 0500 42.4 36 17.1 32.3 W | 268 10.2 17.3 36.6 41.9 46.8
5/8/26 - 0400 42.9 34 16.4 32.4 W | 265 8.7 19.2 38.4 42.6 46.8
5/8/26 - 0300 43.9 31 15.5 32.7 W | 264 8.7 16.7 39.8 43.7 46.8
5/8/26 - 0200 44.6 28 13.7 32.7 W | 270 7.8 15.4 41.2 44.4 46.8
5/8/26 - 0100 46.0 24 11.4 32.9 W | 266 7.4 16.6 42.6 45.5 46.8
5/8/26 - 0000 45.7 28 14.6 33.5 W | 259 8.5 16.1 41.4 43.4 53.2
5/7/26 - 2300 45.7 22 9.1 32.3 W | 270 9.9 18.9 40.7 43.4 53.2
5/7/26 - 2200 45.4 23 9.3 32.1 W | 280 14.1 25.4 38.8 43.4 53.2
5/7/26 - 2100 44.7 41 22.4 35.0 W | 281 15.9 26.9 36.8 43.4 53.2
5/7/26 - 2000 44.7 68 34.7 39.6 W | 274 18.2 33.9 39.0 44.7 53.2
5/7/26 - 1900 47.2 71 38.4 42.5 W | 277 19.7 32.4 42.0 44.9 53.2
5/7/26 - 1800 50.1 61 37.1 43.2 W | 279 19.0 31.0 44.7 44.9 53.2
5/7/26 - 1700 51.4 44 30.3 41.0 W | 276 21.2 37.1 45.1 44.9 53.2
5/7/26 - 1600 51.2 40 27.6 39.9 W | 279 19.9 36.8 45.9 44.9 53.2
5/7/26 - 1500 52.1 45 31.3 41.7 W | 271 18.5 32.7 45.9 44.9 52.8
5/7/26 - 1400 52.2 49 33.6 42.6 W | 270 16.1 29.2 46.2 44.9 52.8
5/7/26 - 1300 51.2 40 27.9 40.0 W | 275 14.3 27.1 46.2 44.9 52.1
5/7/26 - 1200 50.4 49 32.1 41.2 WNW | 283 10.9 24.2 46.2 44.9 51.5
5/7/26 - 1100 48.9 55 33.7 41.2 WNW | 301 12.0 25.7 43.5 44.9 49.4
5/7/26 - 1000 47.3 55 32.1 39.8 WNW | 293 12.0 23.3 41.4 44.9 49.2
5/7/26 - 0900 46.3 55 31.1 38.9 WNW | 289 9.2 19.1 41.3 44.9 49.2
5/7/26 - 0800 45.6 58 31.8 38.9 WNW | 299 8.0 17.3 41.3 44.9 49.2
5/7/26 - 0700 45.9 58 31.8 39.0 WNW | 295 7.3 13.8 42.2 45.5 49.2
Max 52.2 71 38.4 43.2 - 21.2 37.1 46.2 45.5 53.2
Avg 46.8 43 24.6 37.2 - 12.6 23.6 41.6 - -
Min 41.6 22 9.1 31.8 - 7.3 13.8 36.3 41.6 46.8